Flight Track Log - Related Links

Times and Time Zones

All times are in EDT time to prevent confusion due to time zone crossing. See the N5809W flight status page for this flight to view local times or setup timezone preferences in your user account.

Time Position Orientation Groundspeed Altitude Reporting Facility
EDT Latitude Longitude Course Direction KTS MPH feet Rate Location/Type
Sun 02:58:27 PM 36.6597 -119.1894 299° West 132 152 12,500  Level Oakland Center
Sun 02:59:29 PM 36.6783 -119.2308 299° West 139 160 12,200 -194 Descending Oakland Center
Sun 03:00:31 PM 36.6986 -119.2742 300° West 144 166 12,100 -194 Descending Oakland Center
Sun 03:01:33 PM 36.7200 -119.3169 302° West 146 168 11,800 -290 Descending Oakland Center
Sun 03:02:35 PM 36.7486 -119.3672 305° West 148 170 11,500 -242 Descending Oakland Center
Sun 03:03:37 PM 36.7744 -119.4075 309° West 149 171 11,300 -194 Descending Oakland Center
Sun 03:04:39 PM 36.8006 -119.4478 309° West 149 171 11,100 -145 Descending Oakland Center
Sun 03:05:41 PM 36.8244 -119.4886 306° West 148 170 11,000 -146 Descending Oakland Center
Sun 03:06:42 PM 36.8461 -119.5297 303° West 143 165 10,800 -146 Descending Oakland Center
Sun 03:07:44 PM 36.8644 -119.5725 298° West 141 162 10,700 -145 Descending Oakland Center
Sun 03:08:46 PM 36.8858 -119.6225 298° West 139 160 10,500 -97 Descending Oakland Center
Sun 03:09:48 PM 36.9067 -119.6644 302° West 138 159 10,500 -48 Level Oakland Center
Sun 03:10:50 PM 36.9247 -119.7053 299° West 135 155 10,400 -48 Descending Oakland Center
Sun 03:11:52 PM 36.9428 -119.7450 300° West 132 152 10,400  Level Oakland Center
Sun 03:12:54 PM 36.9625 -119.7850 302° West 135 155 10,400  Level Oakland Center
Sun 03:13:56 PM 36.9842 -119.8236 305° West 136 157 10,400 49 Level Oakland Center
Sun 03:14:57 PM 36.9986 -119.8661 293° West 133 153 10,500 49 Climbing Oakland Center
Sun 03:15:59 PM 37.0211 -119.9142 300° West 134 154 10,500  Level Oakland Center
Sun 03:17:01 PM 37.0364 -119.9547 295° West 130 150 10,500  Level Oakland Center
Sun 03:18:03 PM 37.0556 -119.9942 301° West 133 153 10,500 48 Level Oakland Center
Sun 03:19:05 PM 37.0733 -120.0333 300° West 131 151 10,600 97 Climbing Oakland Center
Sun 03:20:07 PM 37.0908 -120.0756 297° West 125 144 10,700 48 Climbing Oakland Center
Sun 03:21:09 PM 37.1089 -120.1119 302° West 127 146 10,700  Level Oakland Center
Sun 03:22:10 PM 37.1261 -120.1525 298° West 131 151 10,700 -49 Level Oakland Center
Sun 03:23:12 PM 37.1308 -120.1956 278° West 125 144 10,600 -48 Descending Oakland Center
Sun 03:24:14 PM 37.1486 -120.2361 299° West 134 154 10,600  Level Oakland Center
Sun 03:25:16 PM 37.1719 -120.2808 303° West 129 148 10,600  Level Oakland Center
Sun 03:26:18 PM 37.1897 -120.3206 299° West 130 150 10,600  Level Oakland Center
Sun 03:27:20 PM 37.2050 -120.3619 295° West 130 150 10,600 -45 Level Oakland Center
Sun 03:28:31 PM 37.2333 -120.4000 313° West 138 159 10,500 -44 Descending Northern Cal TRACON
Sun 03:29:36 PM 37.2500 -120.4500 293° West 132 152 10,500  Level Northern Cal TRACON
Sun 03:30:36 PM 37.2667 -120.5000 293° West 134 154 10,500 35 Level Northern Cal TRACON
Sun 03:32:29 PM 37.2897 -120.5717 292° West 128 147 10,600  Climbing Oakland Center
Sun 03:33:31 PM 37.3108 -120.6119 303° West 137 158 10,500 -49 Descending Oakland Center
Sun 03:34:32 PM 37.3239 -120.6542 291° West 131 151 10,500  Level Oakland Center
Sun 03:35:31 PM 37.3500 -120.6833 318° Northwest 133 153 10,500  Level Northern Cal TRACON
Sun 03:36:31 PM 37.3667 -120.7333 293° West 132 152 10,500  Level Northern Cal TRACON
Sun 03:37:31 PM 37.3833 -120.7667 302° West 132 152 10,500 50 Level Northern Cal TRACON
Sun 03:38:31 PM 37.4000 -120.8167 293° West 131 151 10,600 50 Climbing Northern Cal TRACON
Sun 03:39:31 PM 37.4167 -120.8500 302° West 127 146 10,600  Level Northern Cal TRACON
Sun 03:40:31 PM 37.4500 -120.8833 322° Northwest 133 153 10,600  Level Northern Cal TRACON
Sun 03:41:31 PM 37.4667 -120.9167 302° West 138 159 10,600 -50 Level Northern Cal TRACON
Sun 03:42:31 PM 37.4833 -120.9667 293° West 139 160 10,500 -100 Descending Northern Cal TRACON
Sun 03:43:31 PM 37.5167 -121.0000 322° Northwest 137 158 10,400 -50 Descending Northern Cal TRACON
Sun 03:44:32 PM 37.5333 -121.0333 302° West 132 152 10,400  Level Northern Cal TRACON
Sun 03:45:32 PM 37.5500 -121.0667 302° West 132 152 10,400  Level Northern Cal TRACON
Sun 03:46:32 PM 37.5667 -121.1167 293° West 133 153 10,400 50 Level Northern Cal TRACON
Sun 03:47:32 PM 37.6000 -121.1500 322° Northwest 132 152 10,500  Climbing Northern Cal TRACON
Sun 03:48:32 PM 37.6167 -121.2000 293° West 138 159 10,400 -200 Descending Northern Cal TRACON
Sun 03:49:32 PM 37.6333 -121.2333 302° West 143 165 10,100 -150 Descending Northern Cal TRACON
Sun 03:50:32 PM 37.6500 -121.2833 293° West 133 153 10,100 -100 Level Northern Cal TRACON
Sun 03:51:32 PM 37.6667 -121.3167 302° West 139 160 9,900 -250 Descending Northern Cal TRACON
Sun 03:52:32 PM 37.6833 -121.3667 293° West 144 166 9,600 -300 Descending Northern Cal TRACON
Sun 03:53:32 PM 37.7000 -121.4000 302° West 146 168 9,300 -365 Descending Northern Cal TRACON
Sun 03:54:27 PM 37.7167 -121.4500 293° West 142 163 8,900 -500 Descending Northern Cal TRACON
Sun 03:55:32 PM 37.7333 -121.5000 293° West 149 171 8,300 -524 Descending Northern Cal TRACON
Sun 03:56:33 PM 37.7500 -121.5333 302° West 145 167 7,800 -470 Descending Northern Cal TRACON
Sun 03:57:27 PM 37.7833 -121.5833 310° West 140 161 7,400 -500 Descending Northern Cal TRACON
Sun 03:58:33 PM 37.8000 -121.6167 302° West 140 161 6,800 -550 Descending Northern Cal TRACON
Sun 03:59:27 PM 37.8167 -121.6667 293° West 140 161 6,300 -526 Descending Northern Cal TRACON
Sun 04:00:27 PM 37.8333 -121.7000 302° West 135 155 5,800 -400 Descending Northern Cal TRACON
Sun 04:01:27 PM 37.8500 -121.7333 302° West 133 153 5,500 -300 Descending Northern Cal TRACON
Sun 04:03:00 PM 37.8710 -121.7921 302° West  Level FlightAware Approximate
Sun 04:10:00 PM 37.9790 -122.0456 322° Northwest  Level FlightAware Approximate
Sun 04:11:00 PM 37.9833 -122.0500 322° Northwest  Level FlightAware Approximate
Sun 04:12:00 PM 37.9897 -122.0569 322° Northwest  Level Estimated
Sun 04:13:00 PM 37.9897 -122.0569 322° Northwest  Level Estimated
Sun 04:14:00 PM 37.9897 -122.0569 322° Northwest  Level Estimated
Sun 04:15:00 PM 37.9897 -122.0569 322° Northwest  Level Estimated
Sun 04:16:00 PM 37.9897 -122.0569 322° Northwest  Level Estimated
Sun 04:17:00 PM 37.9897 -122.0569 322° Northwest  Level Estimated
Sun 04:18:00 PM 37.9897 -122.0569 322° Northwest  Level Estimated
Sun 04:19:00 PM 37.9897 -122.0569 322° Northwest  Level Estimated
Sun 04:20:00 PM 37.9897 -122.0569 322° Northwest  Level Estimated
Sun 04:21:00 PM 37.9897 -122.0569 322° Northwest  Level Estimated

Login

Don't have an account? Register now (free) for customized features, flight alerts, and more!